Impacts TAF Board
For situational awareness. Not to be used for flight planning purposes.
IDs:

KDCA - Washington/National, VA, US

Issued at 2320 UTC 22 Oct 2018
Updated at 0354 UTC 23 Oct 2018
Potential Impact None Slight Moderate High
Time0352Z 23/04Z 23/05Z 23/06Z 23/07Z 23/08Z 23/09Z 23/10Z 23/11Z 23/12Z 23/13Z 23/14Z 23/15Z 23/16Z>>
Type OBS PRVL PRVL PRVL PRVL PRVL PRVL PRVL PRVL PRVL PRVL PRVL PRVL PRVL
VIS 10 >6 >6 >6 >6 >6 >6 >6 >6 >6 >6 >6 >6 >6
CIG 130 -- -- -- -- -- -- -- -- -- -- -- -- --
Cover OVC SCT SCT SCT SCT SCT SCT SCT SCT SCT SCT FEW FEW FEW
FltCat VFR VFR VFR VFR VFR VFR VFR VFR VFR VFR VFR VFR VFR VFR
WX -- -- -- -- -- -- -- -- -- -- -- -- -- --
WDir 180 190 190 190 190 190 190 190 190 190 190 230 230 230
WSpd 6 8 8 8 8 8 8 8 8 8 8 6 6 6
WGst -- -- -- -- -- -- -- -- -- -- -- -- -- --
Raw TAF
KDCA 222320Z 2300/2406 19008KT P6SM FEW090 SCT250
  FM231400 23006KT P6SM FEW250
  FM231800 25010G18KT P6SM FEW200 FEW250
  FM232100 29011G19KT P6SM FEW080 SCT250


Raw METAR
KDCA 230352Z 18006KT 10SM BKN130 OVC250 11/06 A3016 RMK AO2 SLP212 T01060056
KDCA 230252Z 19008KT 10SM SCT250 11/05 A3016 RMK AO2 SLP213 T01110050 56006
KDCA 230152Z 19008KT 10SM SCT250 11/04 A3017 RMK AO2 SLP216 T01110044
KDCA 230052Z 19009KT 10SM SCT250 12/04 A3017 RMK AO2 SLP217 T01170039

METAR Board
Radar Display
Forecast Discussion
For situational awareness. Not to be used for flight planning purposes.